Terminal Aerodrome Forecast
Issued by NWS Twin Cities, MN

Home | Current Version | Previous Version | Text Only | Print | Product List | Glossary On
Versions: 1 2 3 4 5 6 7 8 9 10 11 12 13 14 15 16 17 18 19 20 21 22 23
080
FTUS43 KMPX 300534
TAFMSP
TAF
KMSP 300534Z 3006/0112 05012KT P6SM OVC100
     FM301300 04014KT P6SM SCT040 OVC060
     FM301700 04020G30KT 6SM -RA BR OVC025
     FM010000 04020G30KT 5SM -RA BR OVC015
     FM010300 04018G25KT 3SM RA BR OVC008=

USA.gov is the U.S. government's official web portal to all federal, state and local government web resources and services.